Time;durP1;ratioP1;P1;durP2;ratioP2;P2;SDS_P1;SDS_P2;PMS_P1;PMS_P2;Temp;Humidity;BMP_temperature;BMP_pressure;BME280_temperature;BME280_humidity;BME280_pressure;Samples;Min_cycle;Max_cycle;Signal;HPM_P1;HPM_P2
2022/12/01 01:36:04;;;;;;;50.03;23.67;;;2.00;99.90;;;;;;5003545;28;20039;-81
2022/12/01 01:38:30;;;;;;;47.67;24.33;;;2.00;99.90;;;;;;4999643;28;20077;-81
2022/12/01 01:40:56;;;;;;;49.72;24.55;;;2.00;99.90;;;;;;4998330;28;20369;-80
2022/12/01 01:43:47;;;;;;;51.38;24.48;;;1.90;99.90;;;;;;4984069;28;20041;-80
2022/12/01 01:46:18;;;;;;;52.10;25.27;;;1.90;99.90;;;;;;4981230;28;20427;-80
2022/12/01 01:49:01;;;;;;;55.93;25.67;;;2.00;99.90;;;;;;4986029;28;20058;-79
2022/12/01 01:51:35;;;;;;;57.85;24.58;;;2.00;99.90;;;;;;4984233;28;20290;-80
2022/12/01 01:54:14;;;;;;;55.08;25.55;;;1.90;99.90;;;;;;4981568;28;20023;-80
2022/12/01 01:56:45;;;;;;;50.75;23.90;;;1.90;99.90;;;;;;4982738;28;20023;-80
2022/12/01 01:59:14;;;;;;;50.92;24.30;;;1.90;99.90;;;;;;4984994;28;20030;-79
2022/12/01 02:01:39;;;;;;;58.28;25.95;;;2.00;99.90;;;;;;4984284;28;20197;-80
2022/12/01 02:04:06;;;;;;;56.97;26.55;;;2.10;99.90;;;;;;4982586;28;20483;-81
2022/12/01 02:06:32;;;;;;;57.78;26.52;;;2.10;99.90;;;;;;4982349;28;20101;-79
2022/12/01 02:08:58;;;;;;;57.03;26.23;;;2.00;99.90;;;;;;4983005;28;20147;-78
2022/12/01 02:11:47;;;;;;;61.05;28.13;;;2.10;99.90;;;;;;4984925;28;20023;-79
2022/12/01 02:14:37;;;;;;;63.40;27.02;;;2.10;99.90;;;;;;4987860;28;20042;-78
2022/12/01 02:17:14;;;;;;;61.30;25.95;;;2.00;99.90;;;;;;4985076;28;20082;-79
2022/12/01 02:19:44;;;;;;;55.72;25.50;;;2.00;99.90;;;;;;4985764;28;20023;-79
2022/12/01 02:22:34;;;;;;;57.58;24.92;;;2.10;99.90;;;;;;4987047;28;20113;-78
2022/12/01 02:25:39;;;;;;;61.60;26.95;;;2.10;99.90;;;;;;4973352;28;20039;-79
2022/12/01 02:28:19;;;;;;;66.03;27.90;;;2.20;99.90;;;;;;4990077;28;20034;-78
2022/12/01 02:30:54;;;;;;;65.32;28.05;;;2.20;99.90;;;;;;4991784;28;20046;-78
2022/12/01 02:33:35;;;;;;;60.20;25.45;;;2.20;99.90;;;;;;4974634;28;20030;-79
2022/12/01 02:36:25;;;;;;;60.28;24.88;;;2.30;99.90;;;;;;4980223;28;20035;-80
2022/12/01 02:39:03;;;;;;;63.45;25.42;;;2.30;99.90;;;;;;4979545;28;20027;-81
2022/12/01 02:41:51;;;;;;;54.80;23.15;;;2.40;99.90;;;;;;4979197;28;20030;-81
2022/12/01 02:44:38;;;;;;;52.13;22.02;;;2.50;99.90;;;;;;4981775;28;20392;-80
2022/12/01 02:47:09;;;;;;;76.75;30.15;;;2.50;99.90;;;;;;4981085;28;20086;-81
2022/12/01 02:49:40;;;;;;;71.38;29.00;;;2.50;99.90;;;;;;4991021;28;20031;-80
2022/12/01 02:52:06;;;;;;;65.35;26.63;;;2.40;99.90;;;;;;4991623;28;20033;-78
2022/12/01 02:54:33;;;;;;;84.18;30.80;;;2.50;99.90;;;;;;4990832;28;20033;-80
2022/12/01 02:56:59;;;;;;;81.63;32.25;;;2.40;99.90;;;;;;4991399;28;20057;-78
2022/12/01 02:59:24;;;;;;;79.65;30.88;;;2.40;99.90;;;;;;4992765;28;20026;-79
2022/12/01 03:01:56;;;;;;;77.70;30.17;;;2.30;99.90;;;;;;4991283;28;20034;-78
2022/12/01 03:04:45;;;;;;;63.15;27.13;;;2.30;99.90;;;;;;4991523;28;20026;-79
2022/12/01 03:07:35;;;;;;;61.65;25.92;;;2.30;99.90;;;;;;4964483;29;20038;-79
2022/12/01 03:10:19;;;;;;;77.10;30.13;;;2.40;99.90;;;;;;4962029;29;20031;-80
2022/12/01 03:13:13;;;;;;;76.70;30.00;;;2.40;99.90;;;;;;4966802;28;20026;-79
2022/12/01 03:15:54;;;;;;;77.95;30.05;;;2.40;99.90;;;;;;4979492;28;20070;-80
2022/12/01 03:18:32;;;;;;;69.95;27.77;;;2.50;99.90;;;;;;4978646;28;20484;-80
2022/12/01 03:21:46;;;;;;;69.15;27.70;;;2.50;99.90;;;;;;4982015;28;20400;-81
2022/12/01 03:24:15;;;;;;;63.75;26.05;;;2.50;99.90;;;;;;4961081;28;20039;-80
2022/12/01 03:26:46;;;;;;;68.82;29.50;;;2.50;99.90;;;;;;4979125;28;20422;-81
2022/12/01 03:29:24;;;;;;;62.63;26.33;;;2.50;99.90;;;;;;4962814;28;20081;-81
2022/12/01 03:32:03;;;;;;;62.85;26.77;;;2.50;99.90;;;;;;4979665;28;20526;-81
2022/12/01 03:34:45;;;;;;;70.45;27.52;;;2.50;99.90;;;;;;4974559;28;20031;-81
2022/12/01 03:37:37;;;;;;;73.72;27.95;;;2.50;99.90;;;;;;4979262;28;20023;-79
2022/12/01 03:40:07;;;;;;;70.45;28.90;;;2.60;99.90;;;;;;4980511;28;20074;-80
2022/12/01 03:42:40;;;;;;;86.40;31.75;;;2.50;99.90;;;;;;4981818;28;20153;-79
2022/12/01 03:45:13;;;;;;;88.05;32.28;;;2.60;99.90;;;;;;4980634;28;20027;-79
2022/12/01 03:47:39;;;;;;;77.38;29.92;;;2.60;99.90;;;;;;4980549;28;20022;-80
2022/12/01 03:50:07;;;;;;;82.45;29.73;;;2.60;99.90;;;;;;4968857;28;20038;-81
2022/12/01 03:52:54;;;;;;;73.40;29.00;;;2.60;99.90;;;;;;4982835;28;20019;-81
2022/12/01 03:55:23;;;;;;;75.80;28.70;;;2.60;99.90;;;;;;4993970;28;20030;-79
2022/12/01 03:57:57;;;;;;;78.60;30.23;;;2.60;99.90;;;;;;4997029;28;20086;-80
2022/12/01 04:00:23;;;;;;;88.68;32.50;;;2.60;99.90;;;;;;4980112;28;20034;-80
2022/12/01 04:02:57;;;;;;;70.97;30.77;;;2.50;99.90;;;;;;4973626;28;20143;-80
2022/12/01 04:05:24;;;;;;;81.30;33.45;;;2.50;99.90;;;;;;4985019;28;20019;-81
2022/12/01 04:07:50;;;;;;;80.15;32.28;;;2.40;99.90;;;;;;4966611;28;20095;-80
2022/12/01 04:10:15;;;;;;;77.53;31.92;;;2.40;99.90;;;;;;4983612;28;20062;-81
2022/12/01 04:12:41;;;;;;;76.53;33.83;;;2.40;99.90;;;;;;4986411;28;20030;-81
2022/12/01 04:15:13;;;;;;;74.97;31.67;;;2.40;99.90;;;;;;4982569;28;20027;-79
2022/12/01 04:17:42;;;;;;;76.40;31.38;;;2.30;99.90;;;;;;4983130;28;20027;-81
2022/12/01 04:20:10;;;;;;;82.10;32.17;;;2.30;99.90;;;;;;4968401;28;20042;-80
2022/12/01 04:22:36;;;;;;;97.53;34.08;;;2.30;99.90;;;;;;4982931;28;20405;-79
2022/12/01 04:25:06;;;;;;;73.15;30.15;;;2.30;99.90;;;;;;4982479;28;20097;-79
2022/12/01 04:27:33;;;;;;;93.68;34.42;;;2.30;99.90;;;;;;4980658;28;20031;-78
2022/12/01 04:29:58;;;;;;;76.25;31.98;;;2.30;99.90;;;;;;4984732;28;20030;-77
2022/12/01 04:32:27;;;;;;;80.93;32.20;;;2.40;99.90;;;;;;4981581;28;20030;-76
2022/12/01 04:34:53;;;;;;;79.95;31.92;;;2.40;99.90;;;;;;4980344;28;20550;-78
2022/12/01 04:37:19;;;;;;;75.45;31.73;;;2.40;99.90;;;;;;4978597;28;20107;-78
2022/12/01 04:39:45;;;;;;;72.95;30.13;;;2.40;99.90;;;;;;4981109;28;20062;-78
2022/12/01 04:42:11;;;;;;;71.45;29.40;;;2.40;99.90;;;;;;4982473;28;20589;-80
2022/12/01 04:44:36;;;;;;;86.50;32.17;;;2.40;99.90;;;;;;4968052;28;20023;-79
2022/12/01 04:47:03;;;;;;;76.35;29.42;;;2.40;99.90;;;;;;4983232;28;20022;-78
2022/12/01 04:49:29;;;;;;;66.93;29.85;;;2.40;99.90;;;;;;4982459;28;20027;-79
2022/12/01 04:51:55;;;;;;;69.25;29.40;;;2.40;99.90;;;;;;4983247;28;20453;-79
2022/12/01 04:54:21;;;;;;;55.00;26.67;;;2.40;99.90;;;;;;4983452;28;20027;-79
2022/12/01 04:56:47;;;;;;;64.70;28.20;;;2.40;99.90;;;;;;4983282;28;20053;-79
2022/12/01 04:59:13;;;;;;;65.50;29.17;;;2.50;99.90;;;;;;4965231;28;20062;-78
2022/12/01 05:01:39;;;;;;;67.07;28.90;;;2.50;99.90;;;;;;4981977;28;20054;-79
2022/12/01 05:04:05;;;;;;;68.25;28.33;;;2.60;99.90;;;;;;4987012;28;20095;-78
2022/12/01 05:06:30;;;;;;;66.32;29.77;;;2.60;99.90;;;;;;4980919;28;20085;-78
2022/12/01 05:08:58;;;;;;;64.07;28.38;;;2.60;99.90;;;;;;4989051;28;20085;-81
2022/12/01 05:11:25;;;;;;;69.18;30.02;;;2.60;99.90;;;;;;4986021;28;20038;-80
2022/12/01 05:13:51;;;;;;;75.35;29.45;;;2.50;99.90;;;;;;4986845;28;20031;-81
2022/12/01 05:16:18;;;;;;;67.40;29.45;;;2.50;99.90;;;;;;4986385;28;20064;-80
2022/12/01 05:20:55;;;;;;;71.93;29.63;;;2.50;99.90;;;;;;4986770;28;20042;-79
2022/12/01 05:21:37;;;;;;;67.68;28.58;;;2.50;99.90;;;;;;4987659;28;20030;-80
2022/12/01 05:24:03;;;;;;;57.70;26.70;;;2.50;99.90;;;;;;4987893;28;20018;-81
2022/12/01 05:26:29;;;;;;;61.25;27.92;;;2.50;99.90;;;;;;4990255;28;20126;-79
2022/12/01 05:28:54;;;;;;;61.13;26.85;;;2.50;99.90;;;;;;4989768;28;20027;-82
2022/12/01 05:31:20;;;;;;;61.10;27.55;;;2.60;99.90;;;;;;4974199;28;20031;-80
2022/12/01 05:33:46;;;;;;;58.20;27.60;;;2.60;99.90;;;;;;4990628;28;20034;-81
2022/12/01 05:36:11;;;;;;;56.17;25.95;;;2.50;99.90;;;;;;4987469;28;20132;-79
2022/12/01 05:38:37;;;;;;;59.08;26.48;;;2.60;99.90;;;;;;4984811;28;20034;-79
2022/12/01 05:41:02;;;;;;;58.15;28.35;;;2.60;99.90;;;;;;4981261;28;20018;-81
2022/12/01 05:43:28;;;;;;;57.40;26.73;;;2.60;99.90;;;;;;4983529;28;20463;-81
2022/12/01 05:45:54;;;;;;;53.83;26.00;;;2.60;99.90;;;;;;4980655;28;20496;-80
2022/12/01 05:48:20;;;;;;;58.25;27.52;;;2.60;99.90;;;;;;4963877;28;20109;-79
2022/12/01 05:50:45;;;;;;;68.70;27.80;;;2.50;99.90;;;;;;4985638;28;20026;-80
2022/12/01 05:53:13;;;;;;;58.33;25.35;;;2.60;99.90;;;;;;4988200;28;20039;-79
2022/12/01 05:55:38;;;;;;;56.25;26.42;;;2.60;99.90;;;;;;4988790;28;20037;-79
2022/12/01 05:58:04;;;;;;;61.88;27.15;;;2.60;99.90;;;;;;4997954;28;20046;-80
2022/12/01 06:00:30;;;;;;;62.38;27.77;;;2.60;99.90;;;;;;4989844;28;20027;-80
2022/12/01 06:02:56;;;;;;;65.38;26.80;;;2.70;99.90;;;;;;4986870;28;20038;-80
2022/12/01 06:05:21;;;;;;;64.85;28.35;;;2.60;99.90;;;;;;4989016;28;20026;-80
2022/12/01 06:07:47;;;;;;;58.45;26.63;;;2.60;99.90;;;;;;4983895;28;20022;-79
2022/12/01 06:10:12;;;;;;;54.92;25.80;;;2.60;99.90;;;;;;4982083;28;20030;-80
2022/12/01 06:12:39;;;;;;;61.00;27.90;;;2.60;99.90;;;;;;4983120;28;20034;-80
2022/12/01 06:15:06;;;;;;;62.00;27.30;;;2.60;99.90;;;;;;4986886;28;20083;-81
2022/12/01 06:17:32;;;;;;;71.95;28.55;;;2.60;99.90;;;;;;4984803;28;20292;-80
2022/12/01 06:19:58;;;;;;;60.67;26.42;;;2.60;99.90;;;;;;4989159;28;20030;-81
2022/12/01 06:22:24;;;;;;;60.25;27.52;;;2.60;99.90;;;;;;4986640;28;20029;-82
2022/12/01 06:24:49;;;;;;;53.97;24.77;;;2.60;99.90;;;;;;4985200;28;20022;-81
2022/12/01 06:27:15;;;;;;;62.35;26.92;;;2.60;99.90;;;;;;4986598;28;20031;-82
2022/12/01 06:29:41;;;;;;;67.82;27.58;;;2.60;99.90;;;;;;4996120;28;20026;-80
2022/12/01 06:32:06;;;;;;;58.35;26.08;;;2.60;99.90;;;;;;4992473;28;20026;-81
2022/12/01 06:34:32;;;;;;;59.13;27.35;;;2.60;99.90;;;;;;4995589;28;20038;-79
2022/12/01 06:36:57;;;;;;;58.15;27.58;;;2.60;99.90;;;;;;4997253;28;20041;-79
2022/12/01 06:39:23;;;;;;;58.55;28.27;;;2.60;99.90;;;;;;4980317;28;20066;-80
2022/12/01 06:41:49;;;;;;;59.75;26.88;;;2.60;99.90;;;;;;4987740;28;20031;-81
2022/12/01 06:44:14;;;;;;;66.00;27.48;;;2.60;99.90;;;;;;4984813;28;20027;-80
2022/12/01 06:46:40;;;;;;;57.25;25.58;;;2.60;99.90;;;;;;4982538;28;20065;-81
2022/12/01 06:49:10;;;;;;;56.58;24.48;;;2.70;99.90;;;;;;4985501;28;20027;-81
2022/12/01 06:51:36;;;;;;;69.15;29.90;;;2.70;99.90;;;;;;4971725;28;20043;-81
2022/12/01 06:54:10;;;;;;;70.53;28.70;;;2.70;99.90;;;;;;4987150;28;20034;-82
2022/12/01 06:56:36;;;;;;;58.53;26.42;;;2.70;99.90;;;;;;4988183;28;20019;-83
2022/12/01 06:59:01;;;;;;;58.22;26.50;;;2.70;99.90;;;;;;4987576;28;20038;-82
2022/12/01 07:01:27;;;;;;;59.38;28.02;;;2.70;99.90;;;;;;4989570;28;20053;-82
2022/12/01 07:03:53;;;;;;;64.70;27.98;;;2.70;99.90;;;;;;4988864;28;20042;-82
2022/12/01 07:06:19;;;;;;;64.10;27.45;;;2.70;99.90;;;;;;4969420;28;20110;-82
2022/12/01 07:08:45;;;;;;;57.25;27.50;;;2.70;99.90;;;;;;4987752;28;20468;-83
2022/12/01 07:11:13;;;;;;;60.05;28.38;;;2.60;99.90;;;;;;4986271;28;20022;-82
2022/12/01 07:13:41;;;;;;;59.88;26.80;;;2.70;99.90;;;;;;4984223;28;20089;-84
2022/12/01 07:16:08;;;;;;;58.42;26.08;;;2.70;99.90;;;;;;4981536;28;20014;-84
2022/12/01 07:18:35;;;;;;;58.33;28.38;;;2.80;99.90;;;;;;4980785;28;20027;-84
2022/12/01 07:21:12;;;;;;;62.90;25.60;;;2.80;99.90;;;;;;4983181;28;20517;-83
2022/12/01 07:23:38;;;;;;;55.83;25.23;;;2.80;99.90;;;;;;4984335;28;20046;-81
2022/12/01 07:26:06;;;;;;;58.78;26.13;;;2.80;99.90;;;;;;4982579;28;20027;-82
2022/12/01 07:28:32;;;;;;;55.80;24.90;;;2.90;99.90;;;;;;4983274;28;20087;-83
2022/12/01 07:31:06;;;;;;;57.05;27.08;;;2.90;99.90;;;;;;4984458;28;20082;-82
2022/12/01 07:33:32;;;;;;;59.70;25.95;;;3.00;99.90;;;;;;4983689;28;20042;-82
2022/12/01 07:35:58;;;;;;;52.17;23.27;;;3.00;99.90;;;;;;4982593;28;20113;-80
2022/12/01 07:38:26;;;;;;;50.33;23.48;;;3.00;99.90;;;;;;4983431;28;20046;-82
2022/12/01 07:40:51;;;;;;;53.80;25.15;;;3.10;99.90;;;;;;4966541;28;20023;-81
2022/12/01 07:43:17;;;;;;;56.78;24.27;;;3.10;99.90;;;;;;4976372;28;20037;-82
2022/12/01 07:45:43;;;;;;;55.95;23.25;;;3.10;99.90;;;;;;4980832;28;20019;-81
2022/12/01 07:48:08;;;;;;;50.72;24.45;;;3.00;99.90;;;;;;4965746;28;20400;-82
2022/12/01 07:50:34;;;;;;;54.10;24.10;;;3.00;99.90;;;;;;4983038;28;20081;-81
2022/12/01 07:52:59;;;;;;;52.28;23.83;;;3.00;99.90;;;;;;4982328;28;20035;-83
2022/12/01 07:55:25;;;;;;;52.05;23.75;;;3.00;99.90;;;;;;4982630;28;20027;-81
2022/12/01 07:57:52;;;;;;;56.20;24.20;;;3.00;99.90;;;;;;4980982;28;20290;-81
2022/12/01 08:00:18;;;;;;;58.75;25.13;;;2.90;99.90;;;;;;4981372;28;20026;-82
2022/12/01 08:02:43;;;;;;;53.25;24.20;;;3.00;99.90;;;;;;4984341;28;20369;-81
2022/12/01 08:05:09;;;;;;;48.08;22.98;;;3.00;99.90;;;;;;4983026;28;20051;-82
2022/12/01 08:07:34;;;;;;;44.13;22.33;;;3.00;99.90;;;;;;4979996;28;20026;-82
2022/12/01 08:10:00;;;;;;;49.15;23.35;;;3.10;99.90;;;;;;4980660;28;20047;-82
2022/12/01 08:12:26;;;;;;;54.05;25.35;;;3.20;99.90;;;;;;4981703;28;20228;-81
2022/12/01 08:14:51;;;;;;;64.60;26.77;;;3.30;99.90;;;;;;4981649;28;20035;-83
2022/12/01 08:17:17;;;;;;;48.95;24.75;;;3.20;99.90;;;;;;4983937;28;20043;-82
2022/12/01 08:19:43;;;;;;;53.75;25.42;;;3.20;99.90;;;;;;4982899;28;20035;-82
2022/12/01 08:22:11;;;;;;;50.08;24.30;;;3.10;99.90;;;;;;4983363;28;20035;-83
2022/12/01 08:24:36;;;;;;;56.03;24.45;;;3.10;99.90;;;;;;4980622;28;20058;-83
2022/12/01 08:27:02;;;;;;;56.38;25.42;;;3.20;99.90;;;;;;4981644;28;20337;-82
2022/12/01 08:29:27;;;;;;;53.53;25.23;;;3.10;99.90;;;;;;4982062;28;20449;-81
2022/12/01 08:31:55;;;;;;;47.92;24.30;;;3.20;99.90;;;;;;4957520;28;20058;-83
2022/12/01 08:34:21;;;;;;;52.38;24.35;;;3.30;99.90;;;;;;4981539;28;20066;-82
2022/12/01 08:36:47;;;;;;;49.47;24.10;;;3.30;99.90;;;;;;4983036;28;20031;-83
2022/12/01 08:39:12;;;;;;;42.55;19.88;;;3.40;99.90;;;;;;4981251;28;20518;-80
2022/12/01 08:41:38;;;;;;;48.72;21.98;;;3.50;99.90;;;;;;4983065;28;20030;-81
2022/12/01 08:44:04;;;;;;;46.00;22.27;;;3.50;99.90;;;;;;4983096;28;20050;-82
2022/12/01 08:46:34;;;;;;;42.85;22.27;;;3.50;99.90;;;;;;4964243;28;20070;-80
2022/12/01 08:49:04;;;;;;;45.35;22.80;;;3.60;99.90;;;;;;4974764;28;20035;-82
2022/12/01 08:51:33;;;;;;;42.97;21.42;;;3.50;99.90;;;;;;4983260;28;20090;-83
2022/12/01 08:53:59;;;;;;;52.00;24.00;;;3.40;99.90;;;;;;4968099;28;20049;-83
2022/12/01 08:56:32;;;;;;;46.05;21.60;;;3.40;99.90;;;;;;4986141;28;20066;-82
2022/12/01 08:58:58;;;;;;;50.83;23.75;;;3.40;99.90;;;;;;4980722;28;20048;-83
2022/12/01 09:01:24;;;;;;;43.42;22.60;;;3.30;99.90;;;;;;4971155;28;20088;-82
2022/12/01 09:04:07;;;;;;;52.33;23.27;;;3.30;99.90;;;;;;4989020;28;20026;-83
2022/12/01 09:06:43;;;;;;;51.03;24.52;;;3.30;99.90;;;;;;4987839;28;20051;-83
2022/12/01 09:09:11;;;;;;;47.78;22.80;;;3.40;99.90;;;;;;4989153;28;20090;-83
2022/12/01 09:11:47;;;;;;;47.60;22.45;;;3.30;99.90;;;;;;4992048;28;20014;-82
2022/12/01 09:14:14;;;;;;;47.50;23.02;;;3.30;99.90;;;;;;4992283;28;20122;-82
2022/12/01 09:16:41;;;;;;;46.03;22.75;;;3.40;99.90;;;;;;4994496;28;20018;-80
2022/12/01 09:19:07;;;;;;;50.28;23.40;;;3.50;99.90;;;;;;4999478;28;20034;-80
2022/12/01 09:21:36;;;;;;;43.40;21.02;;;3.50;99.90;;;;;;5000105;28;20503;-78
2022/12/01 09:24:02;;;;;;;45.30;21.17;;;3.60;99.90;;;;;;4999981;28;20079;-82
2022/12/01 09:26:29;;;;;;;52.28;23.90;;;3.60;99.90;;;;;;4978831;28;20027;-83
2022/12/01 09:29:07;;;;;;;45.17;22.80;;;3.70;99.90;;;;;;4991342;28;20023;-78
2022/12/01 09:31:35;;;;;;;49.58;23.20;;;3.70;99.90;;;;;;4999820;28;20018;-78
2022/12/01 09:34:07;;;;;;;39.85;21.25;;;3.70;99.90;;;;;;4997053;28;20579;-80
2022/12/01 09:36:36;;;;;;;43.30;20.88;;;3.70;99.90;;;;;;4984739;28;20055;-82
2022/12/01 09:39:03;;;;;;;39.38;19.55;;;3.70;99.90;;;;;;4981840;28;20034;-83
2022/12/01 09:41:42;;;;;;;40.58;21.67;;;3.70;99.90;;;;;;4984246;28;20027;-84
2022/12/01 09:44:33;;;;;;;43.65;21.50;;;3.70;99.90;;;;;;4983797;28;20018;-84
2022/12/01 09:47:35;;;;;;;43.85;20.92;;;3.70;99.90;;;;;;4985136;28;20105;-83
2022/12/01 09:50:03;;;;;;;44.00;21.00;;;3.70;99.90;;;;;;4985644;28;20420;-83
2022/12/01 09:52:37;;;;;;;45.35;21.40;;;3.70;99.90;;;;;;4985260;28;20061;-83
2022/12/01 09:55:05;;;;;;;53.83;23.77;;;3.70;99.90;;;;;;4985947;28;20031;-84
2022/12/01 09:57:35;;;;;;;44.38;21.75;;;3.70;99.90;;;;;;4991705;28;20019;-83
2022/12/01 10:00:10;;;;;;;48.28;22.73;;;3.60;99.90;;;;;;4982925;28;20079;-82
2022/12/01 10:02:45;;;;;;;47.30;23.05;;;3.70;99.90;;;;;;4986351;28;20034;-83
2022/12/01 10:05:15;;;;;;;43.45;20.60;;;3.70;99.90;;;;;;4986812;28;20089;-82
2022/12/01 10:08:10;;;;;;;42.40;21.10;;;3.70;99.90;;;;;;4988579;28;20439;-82
2022/12/01 10:10:47;;;;;;;44.17;20.58;;;3.70;99.90;;;;;;4980330;28;20065;-83
2022/12/01 10:13:19;;;;;;;49.60;23.55;;;3.70;99.90;;;;;;4987879;28;20042;-83
2022/12/01 10:15:54;;;;;;;42.83;21.20;;;3.70;99.90;;;;;;4984209;28;20034;-83
2022/12/01 10:18:50;;;;;;;52.67;24.20;;;3.60;99.90;;;;;;4988911;28;20019;-83
2022/12/01 10:21:44;;;;;;;47.13;22.42;;;3.60;99.90;;;;;;4986741;28;20023;-83
2022/12/01 10:24:29;;;;;;;46.20;22.05;;;3.50;99.90;;;;;;4988364;28;20077;-82
2022/12/01 10:27:14;;;;;;;45.15;21.85;;;3.50;99.90;;;;;;4988831;28;20126;-83
2022/12/01 10:29:53;;;;;;;40.50;21.13;;;3.50;99.90;;;;;;4989386;28;20065;-82
2022/12/01 10:32:29;;;;;;;47.65;20.98;;;3.60;99.90;;;;;;4990377;28;20027;-84
2022/12/01 10:34:56;;;;;;;42.20;21.83;;;3.60;99.90;;;;;;4986892;28;20035;-83
2022/12/01 10:37:26;;;;;;;44.47;21.17;;;3.60;99.90;;;;;;4996316;28;20023;-82
2022/12/01 10:39:54;;;;;;;42.00;20.27;;;3.60;99.90;;;;;;4987592;28;20026;-84
2022/12/01 10:42:36;;;;;;;36.05;18.65;;;3.70;99.90;;;;;;4993492;28;20085;-83
2022/12/01 10:45:13;;;;;;;40.20;19.95;;;3.80;99.90;;;;;;4988024;28;20049;-84
2022/12/01 10:48:17;;;;;;;41.25;21.20;;;3.90;99.90;;;;;;4986758;28;20027;-84
2022/12/01 10:50:43;;;;;;;38.00;19.58;;;3.90;99.90;;;;;;4986574;28;20087;-83
2022/12/01 10:53:27;;;;;;;39.05;20.95;;;3.90;99.90;;;;;;4985726;28;20045;-83
2022/12/01 10:55:59;;;;;;;38.72;19.35;;;4.00;99.90;;;;;;4988571;28;20038;-83
2022/12/01 10:58:25;;;;;;;42.35;21.27;;;4.00;99.90;;;;;;4970689;28;20078;-83
2022/12/01 11:00:57;;;;;;;37.70;20.35;;;4.00;99.90;;;;;;4985353;28;20109;-83
2022/12/01 11:03:27;;;;;;;47.13;21.65;;;3.90;99.90;;;;;;4984810;28;20030;-83
2022/12/01 11:05:58;;;;;;;42.80;21.67;;;3.90;99.90;;;;;;4985501;28;20050;-84
2022/12/01 11:08:42;;;;;;;44.15;21.88;;;4.00;99.90;;;;;;4981656;28;20329;-82
2022/12/01 11:11:32;;;;;;;42.83;20.45;;;4.00;99.90;;;;;;4983251;28;20026;-82
2022/12/01 11:14:02;;;;;;;42.80;20.58;;;4.10;99.90;;;;;;4979602;28;20038;-81
2022/12/01 11:16:40;;;;;;;47.05;22.13;;;4.00;99.90;;;;;;4985191;28;20046;-82
2022/12/01 11:19:27;;;;;;;49.40;20.88;;;3.90;99.90;;;;;;4983708;28;20027;-81
2022/12/01 11:21:58;;;;;;;42.10;19.60;;;3.90;99.90;;;;;;4983675;28;20043;-82
2022/12/01 11:24:47;;;;;;;46.60;22.27;;;4.00;99.90;;;;;;4984591;28;20126;-82
2022/12/01 11:27:22;;;;;;;43.78;21.02;;;4.00;99.90;;;;;;4957343;28;20066;-82
2022/12/01 11:29:53;;;;;;;48.70;23.90;;;4.00;99.90;;;;;;4982664;28;20038;-81
2022/12/01 11:32:19;;;;;;;44.80;22.20;;;4.00;99.90;;;;;;4983993;28;20086;-82
2022/12/01 11:34:52;;;;;;;53.03;22.60;;;4.00;99.90;;;;;;4982447;28;20089;-82
2022/12/01 11:37:21;;;;;;;42.90;21.48;;;4.00;99.90;;;;;;4982742;28;20102;-81
2022/12/01 11:39:47;;;;;;;48.05;21.73;;;4.00;99.90;;;;;;4980640;28;20038;-81
2022/12/01 11:42:12;;;;;;;41.08;19.98;;;4.00;99.90;;;;;;4981774;28;20031;-82
2022/12/01 11:44:46;;;;;;;46.88;21.92;;;4.00;99.90;;;;;;4981041;28;20053;-82
2022/12/01 11:47:17;;;;;;;50.53;22.25;;;4.10;99.90;;;;;;4978793;28;20328;-81
2022/12/01 11:49:50;;;;;;;42.97;20.93;;;4.20;99.90;;;;;;4980740;28;20506;-81
2022/12/01 11:52:28;;;;;;;48.65;23.67;;;4.20;99.90;;;;;;4980452;28;20023;-83
2022/12/01 11:55:01;;;;;;;42.03;20.73;;;4.20;99.90;;;;;;4980577;28;20042;-82
2022/12/01 11:57:29;;;;;;;45.22;21.70;;;4.20;99.90;;;;;;4982628;28;20487;-82
2022/12/01 11:59:54;;;;;;;42.30;20.50;;;4.20;99.90;;;;;;4962282;28;20023;-81
2022/12/01 12:02:39;;;;;;;44.50;21.63;;;4.20;99.90;;;;;;4980966;28;20045;-82
2022/12/01 12:05:25;;;;;;;43.30;20.58;;;4.20;99.90;;;;;;4973634;28;20519;-81
2022/12/01 12:07:51;;;;;;;42.83;22.15;;;4.20;99.90;;;;;;4982660;28;20027;-81
2022/12/01 12:10:28;;;;;;;39.17;20.80;;;4.20;99.90;;;;;;4980868;28;20047;-81
2022/12/01 12:13:13;;;;;;;42.10;20.80;;;4.20;99.90;;;;;;4981092;28;20027;-81
2022/12/01 12:15:57;;;;;;;37.58;19.40;;;4.20;99.90;;;;;;4982974;28;20035;-81
2022/12/01 12:18:22;;;;;;;38.15;19.67;;;4.10;99.90;;;;;;4981228;28;20396;-80
2022/12/01 12:20:55;;;;;;;39.13;19.95;;;4.10;99.90;;;;;;4987634;28;20027;-81
2022/12/01 12:23:43;;;;;;;43.72;21.15;;;4.20;99.90;;;;;;4979525;28;20038;-85
2022/12/01 12:26:13;;;;;;;47.47;20.58;;;4.20;99.90;;;;;;4982213;28;20026;-80
2022/12/01 12:28:41;;;;;;;43.92;20.33;;;4.30;99.90;;;;;;4985753;28;20050;-80
2022/12/01 12:31:18;;;;;;;42.55;20.40;;;4.30;99.70;;;;;;4984941;28;20031;-81
2022/12/01 12:34:14;;;;;;;40.35;19.42;;;4.30;99.90;;;;;;4984171;28;20089;-81
2022/12/01 12:36:55;;;;;;;44.08;21.38;;;4.30;99.90;;;;;;4981508;28;20047;-81
2022/12/01 12:39:34;;;;;;;41.95;20.23;;;4.30;99.90;;;;;;4984863;28;20027;-79
2022/12/01 12:42:17;;;;;;;39.30;19.80;;;4.20;99.90;;;;;;4984488;28;20023;-81
2022/12/01 12:44:46;;;;;;;37.30;18.83;;;4.10;99.90;;;;;;4985874;28;20030;-81
2022/12/01 12:48:01;;;;;;;36.72;18.15;;;4.10;99.90;;;;;;4982497;28;20049;-82
2022/12/01 12:50:30;;;;;;;38.10;18.48;;;4.00;99.80;;;;;;4966702;28;20035;-81
2022/12/01 12:53:00;;;;;;;39.38;19.23;;;4.00;99.90;;;;;;4983513;28;20447;-81
2022/12/01 12:55:38;;;;;;;39.28;19.10;;;4.00;99.90;;;;;;4999926;28;20025;-81
2022/12/01 12:58:39;;;;;;;33.08;16.83;;;4.10;99.90;;;;;;4989249;28;20031;-79
2022/12/01 13:01:21;;;;;;;37.28;18.85;;;4.10;99.90;;;;;;4986017;28;20109;-80
2022/12/01 13:03:54;;;;;;;40.22;18.77;;;4.10;99.90;;;;;;4984040;28;20055;-80
2022/12/01 13:06:24;;;;;;;;;;;4.10;99.90;;;;;;4983913;28;20089;-80
2022/12/01 13:08:55;;;;;;;48.55;19.05;;;4.10;99.90;;;;;;4969229;28;19926;-79
2022/12/01 13:11:32;;;;;;;33.25;16.95;;;4.10;99.90;;;;;;4969518;28;20027;-82
2022/12/01 13:14:06;;;;;;;33.33;16.98;;;4.00;99.90;;;;;;4985418;28;20652;-81
2022/12/01 13:16:36;;;;;;;36.00;17.58;;;4.00;99.90;;;;;;4987055;28;20023;-82
2022/12/01 13:19:12;;;;;;;37.53;19.13;;;4.00;99.90;;;;;;4986717;28;20487;-81
2022/12/01 13:21:44;;;;;;;32.90;18.17;;;3.90;99.90;;;;;;4985550;28;20066;-83
2022/12/01 13:24:19;;;;;;;39.22;19.52;;;3.90;99.90;;;;;;4984731;28;20473;-81
2022/12/01 13:26:49;;;;;;;33.55;17.75;;;3.90;99.90;;;;;;4983340;28;20031;-81
2022/12/01 13:29:18;;;;;;;38.20;19.02;;;3.90;99.90;;;;;;4983773;28;20111;-81
2022/12/01 13:31:49;;;;;;;34.70;18.15;;;3.80;99.90;;;;;;4985021;28;20019;-81
2022/12/01 13:34:38;;;;;;;34.38;17.60;;;3.80;99.90;;;;;;4983733;28;20439;-80
2022/12/01 13:37:04;;;;;;;36.92;18.15;;;3.80;99.90;;;;;;4982158;28;20463;-81
2022/12/01 13:39:35;;;;;;;33.00;17.08;;;3.80;99.90;;;;;;4983719;28;20459;-83
2022/12/01 13:42:19;;;;;;;35.70;17.60;;;3.70;99.90;;;;;;4985094;28;20031;-83
2022/12/01 13:45:00;;;;;;;34.95;16.45;;;3.70;99.90;;;;;;4965573;28;20035;-82
2022/12/01 13:47:38;;;;;;;41.35;19.42;;;3.70;99.90;;;;;;4981595;28;20011;-82
2022/12/01 13:50:42;;;;;;;34.95;18.15;;;3.70;99.90;;;;;;4982884;28;20037;-82
2022/12/01 13:53:28;;;;;;;38.00;18.40;;;3.60;99.90;;;;;;4926800;29;20035;-82
2022/12/01 13:55:56;;;;;;;35.85;18.80;;;3.60;99.90;;;;;;4925247;28;20052;-82
2022/12/01 13:58:25;;;;;;;34.40;17.10;;;3.60;99.90;;;;;;4952198;28;20039;-81
2022/12/01 14:00:51;;;;;;;35.83;18.38;;;3.60;99.90;;;;;;4986617;28;20045;-82
2022/12/01 14:03:18;;;;;;;38.20;18.08;;;3.60;99.90;;;;;;4985196;28;20039;-82
2022/12/01 14:05:55;;;;;;;35.38;17.42;;;3.60;99.90;;;;;;4984171;28;20027;-83
2022/12/01 14:08:27;;;;;;;34.53;16.65;;;3.50;99.90;;;;;;4981621;28;20062;-81
2022/12/01 14:11:01;;;;;;;30.75;15.52;;;3.60;99.90;;;;;;4986382;28;20050;-81
2022/12/01 14:13:29;;;;;;;34.60;18.38;;;3.70;99.90;;;;;;4983792;28;20093;-82
2022/12/01 14:16:00;;;;;;;37.30;17.90;;;3.70;99.90;;;;;;4986548;28;20035;-81
2022/12/01 14:18:39;;;;;;;36.70;17.77;;;3.60;99.90;;;;;;4969860;28;20122;-83
2022/12/01 14:21:09;;;;;;;33.58;16.98;;;3.60;99.90;;;;;;4969658;28;20022;-84
2022/12/01 14:23:56;;;;;;;34.92;17.42;;;3.60;99.90;;;;;;4986826;28;20805;-80
2022/12/01 14:26:22;;;;;;;38.78;18.58;;;3.60;99.90;;;;;;4968958;28;20094;-84
2022/12/01 14:28:53;;;;;;;37.67;18.23;;;3.60;99.90;;;;;;4988823;28;20392;-84
2022/12/01 14:31:20;;;;;;;36.00;16.42;;;3.50;99.90;;;;;;4989826;28;20120;-84
2022/12/01 14:33:53;;;;;;;34.45;17.40;;;3.50;99.90;;;;;;4990885;28;20054;-85
2022/12/01 14:36:47;;;;;;;31.65;16.63;;;3.50;99.90;;;;;;4996668;28;20051;-84
2022/12/01 14:39:23;;;;;;;30.10;15.50;;;3.50;99.90;;;;;;4990592;28;20038;-84